createdAt,value
2019-04-11T00:00:25.442Z,24.20
2019-04-11T00:01:35.818Z,23.00
2019-04-11T00:02:24.748Z,20.00
2019-04-11T00:03:25.109Z,18.90
2019-04-11T00:04:24.258Z,25.60
2019-04-11T00:05:23.877Z,25.30
2019-04-11T00:06:23.745Z,25.40
2019-04-11T00:07:24.558Z,25.00
2019-04-11T00:08:23.485Z,26.30
2019-04-11T00:09:23.357Z,25.00
2019-04-11T00:10:23.226Z,24.60
2019-04-11T00:11:23.932Z,22.50
2019-04-11T00:12:24.261Z,22.40
2019-04-11T00:13:26.665Z,25.10
2019-04-11T00:14:22.706Z,24.80
2019-04-11T00:15:22.579Z,22.20
2019-04-11T00:16:23.487Z,17.50
2019-04-11T00:17:22.317Z,21.50
2019-04-11T00:18:22.844Z,20.80
2019-04-11T00:19:23.144Z,23.40
2019-04-11T00:20:22.185Z,21.00
2019-04-11T00:21:22.458Z,22.60
2019-04-11T00:22:21.668Z,22.30
2019-04-11T00:23:21.800Z,21.80
2019-04-11T00:24:21.409Z,23.20
2019-04-11T00:25:21.281Z,22.30
2019-04-11T00:26:22.206Z,18.90
2019-04-11T00:27:21.249Z,19.60
2019-04-11T00:28:21.575Z,21.50
2019-04-11T00:29:20.762Z,20.80
2019-04-11T00:30:20.812Z,20.60
2019-04-11T00:31:20.981Z,21.10
2019-04-11T00:32:21.260Z,20.60
2019-04-11T00:33:20.279Z,21.20
2019-04-11T00:34:20.638Z,21.00
2019-04-11T00:35:19.979Z,21.20
2019-04-11T00:36:20.077Z,21.70
2019-04-11T00:37:19.721Z,21.70
2019-04-11T00:38:19.590Z,20.00
2019-04-11T00:39:19.543Z,19.60
2019-04-11T00:40:19.988Z,16.40
2019-04-11T00:41:19.204Z,18.40
2019-04-11T00:42:19.078Z,15.40
2019-04-11T00:43:30.872Z,16.00
2019-04-11T00:44:18.895Z,16.10
2019-04-11T00:45:19.149Z,14.80
2019-04-11T00:46:18.553Z,13.70
2019-04-11T00:47:18.423Z,14.10
2019-04-11T00:48:18.294Z,13.70
2019-04-11T00:49:18.661Z,15.00
2019-04-11T00:50:19.060Z,14.30
2019-04-11T00:51:18.740Z,13.90
2019-04-11T00:52:17.776Z,15.20
2019-04-11T00:53:18.915Z,19.10
2019-04-11T00:54:18.481Z,22.50
2019-04-11T00:55:17.632Z,23.60
2019-04-11T00:56:17.862Z,25.80
2019-04-11T00:57:17.132Z,25.30
2019-04-11T00:58:17.187Z,26.60
2019-04-11T00:59:16.900Z,20.50
2019-04-11T01:00:16.734Z,15.30
2019-04-11T01:01:17.685Z,20.30
2019-04-11T01:02:17.611Z,15.00
2019-04-11T01:03:16.345Z,15.90
2019-04-11T01:04:16.218Z,21.20
2019-04-11T01:05:17.120Z,20.00
2019-04-11T01:06:16.227Z,15.80
2019-04-11T01:07:16.551Z,15.20
2019-04-11T01:08:15.768Z,19.90
2019-04-11T01:09:15.851Z,20.60
2019-04-11T01:10:16.182Z,18.40
2019-04-11T01:11:16.120Z,19.80
2019-04-11T01:12:16.217Z,19.80
2019-04-11T01:13:15.743Z,21.40
2019-04-11T01:14:15.337Z,18.20
2019-04-11T01:15:15.462Z,20.40
2019-04-11T01:16:14.657Z,21.20
2019-04-11T01:17:14.942Z,22.70
2019-04-11T01:18:14.395Z,19.40
2019-04-11T01:19:14.368Z,16.50
2019-04-11T01:20:15.312Z,17.80
2019-04-11T01:21:14.007Z,21.90
2019-04-11T01:22:14.050Z,22.10
2019-04-11T01:23:13.749Z,22.50
2019-04-11T01:24:13.616Z,20.90
2019-04-11T01:25:14.658Z,18.20
2019-04-11T01:26:13.368Z,19.00
2019-04-11T01:27:13.949Z,19.70
2019-04-11T01:28:14.243Z,19.70
2019-04-11T01:29:13.416Z,18.40
2019-04-11T01:30:13.733Z,19.40
2019-04-11T01:31:13.525Z,20.40
2019-04-11T01:32:12.580Z,20.00
2019-04-11T01:33:12.969Z,19.00
2019-04-11T01:34:12.692Z,17.60
2019-04-11T01:35:13.103Z,17.30
2019-04-11T01:36:12.691Z,19.20
2019-04-11T01:37:11.930Z,21.00
2019-04-11T01:38:12.408Z,19.80
2019-04-11T01:39:12.622Z,19.30
2019-04-11T01:40:11.788Z,23.70
2019-04-11T01:41:12.137Z,25.30
2019-04-11T01:42:11.278Z,22.20
2019-04-11T01:43:11.428Z,18.10
2019-04-11T01:44:11.018Z,17.00
2019-04-11T01:45:11.535Z,20.50
2019-04-11T01:46:10.759Z,20.00
2019-04-11T01:47:10.864Z,13.60
2019-04-11T01:48:11.149Z,18.60
2019-04-11T01:49:10.378Z,16.00
2019-04-11T01:50:10.566Z,15.00
2019-04-11T01:51:10.123Z,24.60
2019-04-11T01:52:09.981Z,24.20
2019-04-11T01:53:10.904Z,25.30
2019-04-11T01:54:09.721Z,26.20
2019-04-11T01:55:10.289Z,24.90
2019-04-11T01:56:09.474Z,23.80
2019-04-11T01:57:09.713Z,24.20
2019-04-11T01:58:09.208Z,24.70
2019-04-11T01:59:09.069Z,25.80
2019-04-11T02:00:09.745Z,24.50
2019-04-11T02:01:08.809Z,22.50
2019-04-11T02:02:09.521Z,19.10
2019-04-11T02:03:08.838Z,22.50
2019-04-11T02:04:08.419Z,20.50
2019-04-11T02:05:08.408Z,21.50
2019-04-11T02:06:08.158Z,20.30
2019-04-11T02:07:08.028Z,20.80
2019-04-11T02:08:09.178Z,22.40
2019-04-11T02:09:08.076Z,22.30
2019-04-11T02:10:08.548Z,21.80
2019-04-11T02:11:08.199Z,21.00
2019-04-11T02:12:07.380Z,20.70
2019-04-11T02:13:07.859Z,20.40
2019-04-11T02:14:15.044Z,20.00
2019-04-11T02:15:08.162Z,20.60
2019-04-11T02:16:06.860Z,19.40
2019-04-11T02:17:06.735Z,20.00
2019-04-11T02:18:07.570Z,20.10
2019-04-11T02:19:06.473Z,18.90
2019-04-11T02:20:06.969Z,18.30
2019-04-11T02:21:06.320Z,17.50
2019-04-11T02:22:06.322Z,16.50
2019-04-11T02:23:06.740Z,15.60
2019-04-11T02:24:05.871Z,14.80
2019-04-11T02:25:06.003Z,16.10
2019-04-11T02:26:05.565Z,16.20
2019-04-11T02:27:06.390Z,15.40
2019-04-11T02:28:06.490Z,16.40
2019-04-11T02:29:05.557Z,18.90
2019-04-11T02:30:05.048Z,22.60
2019-04-11T02:31:06.951Z,22.30
2019-04-11T02:32:05.489Z,21.10
2019-04-11T02:33:04.906Z,15.90
2019-04-11T02:34:06.466Z,21.50
2019-04-11T02:35:07.056Z,19.70
2019-04-11T02:36:05.274Z,18.60
2019-04-11T02:37:05.110Z,18.90
2019-04-11T02:38:04.956Z,17.10
2019-04-11T02:39:09.907Z,16.80
2019-04-11T02:40:05.381Z,16.50
2019-04-11T02:41:05.952Z,16.90
2019-04-11T02:42:04.008Z,19.20
2019-04-11T02:43:04.924Z,19.30
2019-04-11T02:44:03.614Z,16.10
2019-04-11T02:45:18.106Z,16.90
2019-04-11T02:46:13.021Z,15.80
2019-04-11T02:47:10.988Z,16.20
2019-04-11T02:48:04.022Z,15.60
2019-04-11T02:49:03.140Z,16.10
2019-04-11T02:50:03.671Z,15.70
2019-04-11T02:51:03.135Z,18.30
2019-04-11T02:52:02.667Z,19.60
2019-04-11T02:53:02.930Z,22.10
2019-04-11T02:54:02.331Z,21.00
2019-04-11T02:55:03.382Z,22.80
2019-04-11T02:56:02.748Z,19.40
2019-04-11T02:57:02.452Z,20.30
2019-04-11T02:58:03.315Z,20.00
2019-04-11T02:59:02.302Z,18.80
2019-04-11T03:00:02.045Z,17.30
2019-04-11T03:01:05.041Z,17.90
2019-04-11T03:02:01.323Z,18.50
2019-04-11T03:03:01.669Z,17.60
2019-04-11T03:04:02.001Z,17.50
2019-04-11T03:05:01.208Z,18.30
2019-04-11T03:06:02.132Z,19.30
2019-04-11T03:07:00.578Z,18.50
2019-04-11T03:08:01.060Z,18.40
2019-04-11T03:08:59.976Z,19.20
2019-04-11T03:10:00.277Z,17.80
2019-04-11T03:11:01.352Z,17.90
2019-04-11T03:11:59.603Z,17.90
2019-04-11T03:13:00.759Z,18.00
2019-04-11T03:14:01.263Z,16.10
2019-04-11T03:15:16.560Z,15.90
2019-04-11T03:16:11.118Z,15.60
2019-04-11T03:17:08.405Z,15.30
2019-04-11T03:18:02.121Z,15.40
2019-04-11T03:19:14.367Z,14.80
2019-04-11T03:20:10.601Z,14.80
2019-04-11T03:21:04.526Z,14.40
2019-04-11T03:21:59.370Z,14.20
2019-04-11T03:23:04.781Z,14.00
2019-04-11T03:23:58.928Z,14.60
2019-04-11T03:24:58.476Z,14.90
2019-04-11T03:25:57.767Z,13.60
2019-04-11T03:27:00.166Z,13.30
2019-04-11T03:27:58.852Z,12.60
2019-04-11T03:28:57.843Z,12.20
2019-04-11T03:29:58.095Z,12.40
2019-04-11T03:31:26.652Z,11.90
2019-04-11T03:32:49.430Z,11.80
2019-04-11T03:35:51.258Z,9.50
2019-04-11T03:38:21.409Z,13.40
2019-04-11T03:39:15.248Z,18.30
2019-04-11T03:40:11.855Z,17.10
2019-04-11T03:41:12.041Z,19.20
2019-04-11T03:42:14.182Z,22.90
2019-04-11T03:43:08.876Z,24.70
2019-04-11T03:44:04.338Z,23.70
2019-04-11T03:45:15.298Z,24.80
2019-04-11T03:46:16.086Z,22.40
2019-04-11T03:47:11.206Z,18.80
2019-04-11T03:48:10.143Z,19.70
2019-04-11T03:49:03.863Z,20.10
2019-04-11T03:50:01.678Z,18.30
2019-04-11T03:50:57.129Z,17.10
2019-04-11T03:51:55.105Z,16.90
2019-04-11T03:52:56.095Z,16.10
2019-04-11T03:53:54.124Z,19.60
2019-04-11T03:54:54.097Z,21.30
2019-04-11T03:55:53.923Z,22.30
2019-04-11T03:56:53.870Z,22.50
2019-04-11T03:57:55.984Z,22.10
2019-04-11T03:58:53.921Z,20.90
2019-04-11T03:59:54.524Z,22.30
2019-04-11T04:00:56.899Z,21.50
2019-04-11T04:01:54.316Z,20.50
2019-04-11T04:02:55.111Z,20.60
2019-04-11T04:03:53.985Z,20.40
2019-04-11T04:04:53.991Z,21.20
2019-04-11T04:05:52.888Z,22.40
2019-04-11T04:06:52.870Z,21.70
2019-04-11T04:07:52.534Z,21.90
2019-04-11T04:08:53.183Z,21.40
2019-04-11T04:09:53.685Z,22.00
2019-04-11T04:10:51.957Z,19.70
2019-04-11T04:11:51.791Z,20.90
2019-04-11T04:12:52.372Z,21.40
2019-04-11T04:13:52.324Z,20.30
2019-04-11T04:14:51.582Z,20.90
2019-04-11T04:16:00.044Z,20.30
2019-04-11T04:16:54.865Z,20.30
2019-04-11T04:17:52.042Z,20.70
2019-04-11T04:18:51.716Z,19.60
2019-04-11T04:19:51.804Z,18.90
2019-04-11T04:20:51.177Z,18.60
2019-04-11T04:21:51.141Z,17.70
2019-04-11T04:22:50.354Z,17.40
2019-04-11T04:23:51.695Z,17.30
2019-04-11T04:24:51.716Z,16.70
2019-04-11T04:25:51.535Z,15.70
2019-04-11T04:26:50.277Z,16.20
2019-04-11T04:27:51.216Z,18.00
2019-04-11T04:28:51.165Z,21.10
2019-04-11T04:29:53.213Z,22.30
2019-04-11T04:30:49.509Z,22.20
2019-04-11T04:31:50.768Z,22.80
2019-04-11T04:32:49.358Z,24.70
2019-04-11T04:33:48.923Z,23.90
2019-04-11T04:34:50.656Z,23.50
2019-04-11T04:35:49.639Z,22.40
2019-04-11T04:36:49.705Z,24.60
2019-04-11T04:37:49.740Z,24.10
2019-04-11T04:38:48.828Z,23.90
2019-04-11T04:39:49.929Z,23.80
2019-04-11T04:41:00.275Z,24.10
2019-04-11T04:41:58.184Z,23.00
2019-04-11T04:42:52.128Z,24.40
2019-04-11T04:43:48.373Z,24.60
2019-04-11T04:44:48.990Z,25.10
2019-04-11T04:46:04.898Z,23.50
2019-04-11T04:47:54.009Z,22.80
2019-04-11T04:48:49.169Z,19.10
2019-04-11T04:49:48.205Z,20.40
2019-04-11T04:50:46.824Z,24.20
2019-04-11T04:51:47.734Z,24.90
2019-04-11T04:52:46.801Z,26.50
2019-04-11T04:53:48.006Z,27.60
2019-04-11T04:54:46.523Z,26.90
2019-04-11T04:55:47.706Z,23.80
2019-04-11T04:56:47.361Z,23.30
2019-04-11T04:57:45.799Z,23.90
2019-04-11T04:58:46.721Z,25.90
2019-04-11T04:59:46.893Z,25.60
2019-04-11T05:00:45.691Z,23.30
2019-04-11T05:01:46.339Z,23.40
2019-04-11T05:02:45.149Z,23.20
2019-04-11T05:03:46.628Z,22.50
2019-04-11T05:04:45.908Z,20.70
2019-04-11T05:05:46.428Z,21.70
2019-04-11T05:06:47.835Z,20.90
2019-04-11T05:07:46.480Z,20.50
2019-04-11T05:08:45.097Z,20.40
2019-04-11T05:09:45.804Z,19.30
2019-04-11T05:10:44.960Z,15.30
2019-04-11T05:11:44.606Z,13.40
2019-04-11T05:12:44.049Z,13.90
2019-04-11T05:13:47.743Z,14.60
2019-04-11T05:14:43.591Z,18.90
2019-04-11T05:15:44.035Z,22.80
2019-04-11T05:16:44.164Z,22.30
2019-04-11T05:17:44.431Z,20.70
2019-04-11T05:18:43.966Z,21.00
2019-04-11T05:19:42.942Z,20.80
2019-04-11T05:20:42.817Z,20.20
2019-04-11T05:21:43.601Z,20.10
2019-04-11T05:22:43.636Z,20.30
2019-04-11T05:23:42.421Z,22.40
2019-04-11T05:24:43.375Z,24.90
2019-04-11T05:25:42.530Z,24.80
2019-04-11T05:26:42.044Z,24.10
2019-04-11T05:27:41.973Z,27.70
2019-04-11T05:28:41.772Z,27.30
2019-04-11T05:29:41.793Z,26.90
2019-04-11T05:30:41.894Z,25.90
2019-04-11T05:31:41.383Z,24.30
2019-04-11T05:32:41.742Z,23.30
2019-04-11T05:33:41.302Z,22.00
2019-04-11T05:34:41.451Z,22.70
2019-04-11T05:35:41.718Z,23.20
2019-04-11T05:36:40.933Z,22.40
2019-04-11T05:37:40.603Z,21.70
2019-04-11T05:38:40.472Z,24.90
2019-04-11T05:39:41.378Z,25.20
2019-04-11T05:40:40.575Z,24.20
2019-04-11T05:41:44.009Z,24.50
2019-04-11T05:42:39.954Z,22.80
2019-04-11T05:43:41.285Z,25.40
2019-04-11T05:44:40.731Z,21.90
2019-04-11T05:45:40.156Z,21.10
2019-04-11T05:46:49.126Z,21.50
2019-04-11T05:47:39.396Z,23.20
2019-04-11T05:48:39.175Z,22.60
2019-04-11T05:49:41.607Z,21.80
2019-04-11T05:50:43.285Z,20.20
2019-04-11T05:51:43.807Z,21.20
2019-04-11T05:52:39.883Z,22.10
2019-04-11T05:53:38.786Z,22.90
2019-04-11T05:54:41.367Z,19.20
2019-04-11T05:55:41.422Z,18.50
2019-04-11T05:56:38.138Z,14.90
2019-04-11T05:57:38.863Z,12.40
2019-04-11T05:58:42.135Z,11.70
2019-04-11T05:59:37.749Z,10.70
2019-04-11T06:00:38.811Z,11.60
2019-04-11T06:01:38.329Z,11.60
2019-04-11T06:02:37.477Z,15.50
2019-04-11T06:03:39.973Z,21.50
2019-04-11T06:04:37.286Z,24.80
2019-04-11T06:05:37.907Z,29.10
2019-04-11T06:06:40.057Z,31.60
2019-04-11T06:07:41.013Z,31.30
2019-04-11T06:08:37.799Z,29.50
2019-04-11T06:09:38.950Z,29.10
2019-04-11T06:10:37.087Z,28.60
2019-04-11T06:11:36.951Z,28.70
2019-04-11T06:12:36.062Z,26.80
2019-04-11T06:13:36.422Z,24.00
2019-04-11T06:14:35.801Z,23.90
2019-04-11T06:15:36.360Z,21.50
2019-04-11T06:16:41.154Z,21.30
2019-04-11T06:17:36.437Z,23.80
2019-04-11T06:18:37.736Z,22.50
2019-04-11T06:19:35.152Z,21.80
2019-04-11T06:20:35.590Z,27.50
2019-04-11T06:21:35.892Z,31.70
2019-04-11T06:22:35.930Z,31.10
2019-04-11T06:23:35.108Z,28.10
2019-04-11T06:24:34.508Z,26.10
2019-04-11T06:25:35.824Z,23.80
2019-04-11T06:26:34.540Z,22.60
2019-04-11T06:27:36.019Z,23.90
2019-04-11T06:28:33.984Z,27.20
2019-04-11T06:29:34.882Z,25.40
2019-04-11T06:30:34.626Z,28.90
2019-04-11T06:31:33.857Z,28.60
2019-04-11T06:32:34.115Z,30.10
2019-04-11T06:33:34.413Z,26.20
2019-04-11T06:34:33.432Z,24.80
2019-04-11T06:35:35.851Z,23.10
2019-04-11T06:36:32.954Z,24.50
2019-04-11T06:37:33.960Z,28.30
2019-04-11T06:38:32.684Z,30.90
2019-04-11T06:39:33.532Z,29.70
2019-04-11T06:40:32.733Z,28.00
2019-04-11T06:41:32.793Z,28.60
2019-04-11T06:42:32.167Z,28.60
2019-04-11T06:43:32.154Z,27.90
2019-04-11T06:44:32.122Z,30.00
2019-04-11T06:45:31.779Z,29.40
2019-04-11T06:46:31.649Z,29.50
2019-04-11T06:47:32.556Z,30.30
2019-04-11T06:48:31.772Z,32.10
2019-04-11T06:49:31.262Z,35.10
2019-04-11T06:50:31.337Z,34.20
2019-04-11T06:51:32.356Z,30.60
2019-04-11T06:52:30.868Z,29.30
2019-04-11T06:53:30.739Z,27.80
2019-04-11T06:54:30.783Z,30.50
2019-04-11T06:55:30.807Z,30.30
2019-04-11T06:56:30.557Z,28.60
2019-04-11T06:57:30.225Z,28.10
2019-04-11T06:58:30.090Z,29.80
2019-04-11T06:59:30.198Z,30.50
2019-04-11T07:00:29.832Z,28.00
2019-04-11T07:01:30.054Z,25.20
2019-04-11T07:02:29.998Z,25.10
2019-04-11T07:03:30.826Z,25.70
2019-04-11T07:04:29.567Z,36.50
2019-04-11T07:05:30.908Z,38.60
2019-04-11T07:06:29.372Z,42.40
2019-04-11T07:07:30.594Z,41.70
2019-04-11T07:08:29.969Z,38.90
2019-04-11T07:09:28.787Z,39.50
2019-04-11T07:10:28.698Z,36.90
2019-04-11T07:11:28.404Z,32.70
2019-04-11T07:12:28.650Z,37.20
2019-04-11T07:13:28.385Z,38.30
2019-04-11T07:14:29.063Z,35.60
2019-04-11T07:15:27.892Z,36.00
2019-04-11T07:16:27.755Z,33.80
2019-04-11T07:17:27.643Z,34.20
2019-04-11T07:18:27.498Z,38.00
2019-04-11T07:19:28.654Z,38.40
2019-04-11T07:20:27.337Z,36.10
2019-04-11T07:21:27.585Z,36.10
2019-04-11T07:22:26.978Z,36.10
2019-04-11T07:23:26.848Z,36.50
2019-04-11T07:24:26.720Z,34.00
2019-04-11T07:25:26.857Z,30.50
2019-04-11T07:26:27.360Z,30.80
2019-04-11T07:27:26.327Z,31.50
2019-04-11T07:28:27.288Z,32.90
2019-04-11T07:29:26.068Z,39.00
2019-04-11T07:30:25.939Z,43.30
2019-04-11T07:31:25.813Z,40.90
2019-04-11T07:32:25.772Z,40.80
2019-04-11T07:33:26.638Z,40.60
2019-04-11T07:34:26.798Z,38.70
2019-04-11T07:35:25.291Z,39.40
2019-04-11T07:36:25.163Z,40.60
2019-04-11T07:37:26.123Z,34.70
2019-04-11T07:38:24.901Z,42.00
2019-04-11T07:39:24.774Z,38.80
2019-04-11T07:40:24.647Z,35.60
2019-04-11T07:41:26.028Z,34.80
2019-04-11T07:42:25.913Z,32.30
2019-04-11T07:43:24.928Z,31.70
2019-04-11T07:44:26.925Z,32.80
2019-04-11T07:45:25.143Z,41.20
2019-04-11T07:46:25.055Z,39.60
2019-04-11T07:47:26.302Z,35.30
2019-04-11T07:48:23.620Z,36.30
2019-04-11T07:49:24.454Z,35.60
2019-04-11T07:50:24.957Z,35.70
2019-04-11T07:51:23.376Z,39.00
2019-04-11T07:52:23.090Z,35.20
2019-04-11T07:53:24.035Z,34.50
2019-04-11T07:54:22.836Z,36.00
2019-04-11T07:55:22.703Z,37.80
2019-04-11T07:56:23.069Z,36.00
2019-04-11T07:57:22.656Z,36.70
2019-04-11T07:58:22.315Z,35.50
2019-04-11T07:59:22.186Z,35.90
2019-04-11T08:00:35.923Z,34.50
2019-04-11T08:01:21.927Z,33.00
2019-04-11T08:02:24.080Z,34.00
2019-04-11T08:03:21.665Z,33.80
2019-04-11T08:04:21.688Z,33.80
2019-04-11T08:05:21.547Z,33.20
2019-04-11T08:06:22.285Z,30.20
2019-04-11T08:07:22.146Z,29.70
2019-04-11T08:08:21.459Z,29.20
2019-04-11T08:09:22.104Z,34.30
2019-04-11T08:10:20.759Z,33.90
2019-04-11T08:11:20.630Z,36.60
2019-04-11T08:12:21.322Z,35.30
2019-04-11T08:13:20.685Z,34.60
2019-04-11T08:14:20.319Z,34.80
2019-04-11T08:15:20.116Z,36.70
2019-04-11T08:16:20.417Z,37.80
2019-04-11T08:17:28.180Z,36.70
2019-04-11T08:18:20.801Z,34.90
2019-04-11T08:19:20.949Z,36.60
2019-04-11T08:20:19.494Z,38.10
2019-04-11T08:21:19.953Z,39.40
2019-04-11T08:22:19.208Z,38.30
2019-04-11T08:23:19.405Z,36.80
2019-04-11T08:24:18.949Z,35.00
2019-04-11T08:25:18.817Z,33.10
2019-04-11T08:26:19.754Z,31.80
2019-04-11T08:27:19.656Z,33.80
2019-04-11T08:28:18.590Z,36.80
2019-04-11T08:29:18.302Z,35.80
2019-04-11T08:30:19.046Z,35.80
2019-04-11T08:31:18.042Z,32.80
2019-04-11T08:32:17.959Z,32.50
2019-04-11T08:33:18.326Z,34.70
2019-04-11T08:34:17.655Z,36.70
2019-04-11T08:35:17.722Z,35.70
2019-04-11T08:36:17.752Z,34.60
2019-04-11T08:37:17.270Z,35.80
2019-04-11T08:38:18.357Z,31.40
2019-04-11T08:39:17.276Z,30.70
2019-04-11T08:40:17.670Z,31.80
2019-04-11T08:41:17.632Z,33.50
2019-04-11T08:42:17.028Z,32.20
2019-04-11T08:43:17.172Z,33.60
2019-04-11T08:44:17.419Z,32.30
2019-04-11T08:45:17.435Z,33.60
2019-04-11T08:46:16.107Z,34.50
2019-04-11T08:47:16.281Z,32.30
2019-04-11T08:48:16.989Z,31.20
2019-04-11T08:49:15.720Z,29.60
2019-04-11T08:50:16.401Z,28.60
2019-04-11T08:51:15.461Z,28.90
2019-04-11T08:52:15.993Z,31.80
2019-04-11T08:53:16.220Z,33.20
2019-04-11T08:54:15.464Z,32.30
2019-04-11T08:55:17.142Z,32.30
2019-04-11T08:56:14.818Z,31.80
2019-04-11T08:57:15.724Z,32.50
2019-04-11T08:58:14.559Z,28.40
2019-04-11T08:59:15.353Z,28.50
2019-04-11T09:00:14.300Z,29.60
2019-04-11T09:01:14.172Z,31.90
2019-04-11T09:02:14.043Z,33.70
2019-04-11T09:03:13.916Z,31.10
2019-04-11T09:04:15.280Z,33.60
2019-04-11T09:05:16.904Z,33.90
2019-04-11T09:06:14.582Z,33.20
2019-04-11T09:07:13.609Z,34.20
2019-04-11T09:08:14.226Z,33.00
2019-04-11T09:09:13.311Z,33.00
2019-04-11T09:10:13.012Z,32.80
2019-04-11T09:11:12.885Z,31.90
2019-04-11T09:12:12.754Z,31.10
2019-04-11T09:13:13.271Z,31.20
2019-04-11T09:14:13.670Z,32.30
2019-04-11T09:15:12.695Z,33.10
2019-04-11T09:16:13.157Z,31.00
2019-04-11T09:17:12.384Z,31.30
2019-04-11T09:18:13.729Z,31.40
2019-04-11T09:19:11.852Z,31.50
2019-04-11T09:20:11.722Z,31.30
2019-04-11T09:21:11.938Z,29.60
2019-04-11T09:22:11.464Z,29.90
2019-04-11T09:23:11.426Z,30.70
2019-04-11T09:24:12.347Z,31.10
2019-04-11T09:25:11.130Z,31.70
2019-04-11T09:26:11.816Z,29.90
2019-04-11T09:27:12.072Z,30.20
2019-04-11T09:28:11.365Z,29.00
2019-04-11T09:29:10.560Z,30.00
2019-04-11T09:30:12.952Z,30.60
2019-04-11T09:31:12.183Z,30.10
2019-04-11T09:32:10.173Z,31.00
2019-04-11T09:33:10.946Z,30.70
2019-04-11T09:34:11.201Z,31.20
2019-04-11T09:35:10.243Z,31.90
2019-04-11T09:36:09.656Z,31.10
2019-04-11T09:37:12.288Z,30.50
2019-04-11T09:38:10.415Z,32.40
2019-04-11T09:39:09.270Z,32.40
2019-04-11T09:40:09.940Z,31.80
2019-04-11T09:41:09.105Z,31.00
2019-04-11T09:42:10.029Z,31.80
2019-04-11T09:43:09.350Z,32.30
2019-04-11T09:44:08.624Z,32.90
2019-04-11T09:45:08.941Z,31.80
2019-04-11T09:46:08.364Z,32.80
2019-04-11T09:47:08.238Z,32.20
2019-04-11T09:48:13.870Z,32.40
2019-04-11T09:49:08.691Z,32.00
2019-04-11T09:50:07.848Z,32.70
2019-04-11T09:51:07.729Z,33.10
2019-04-11T09:52:08.700Z,33.20
2019-04-11T09:53:07.462Z,33.30
2019-04-11T09:54:08.568Z,32.60
2019-04-11T09:55:07.205Z,33.60
2019-04-11T09:56:07.077Z,32.90
2019-04-11T09:57:07.877Z,33.50
2019-04-11T09:58:06.820Z,33.50
2019-04-11T09:59:06.856Z,33.40
2019-04-11T10:00:06.559Z,32.10
2019-04-11T10:01:06.427Z,32.00
2019-04-11T10:02:06.297Z,33.60
2019-04-11T10:03:06.622Z,34.10
2019-04-11T10:04:06.513Z,33.00
2019-04-11T10:05:05.913Z,32.00
2019-04-11T10:06:05.781Z,32.60
2019-04-11T10:07:05.652Z,33.60
2019-04-11T10:08:06.507Z,33.50
2019-04-11T10:09:05.824Z,34.70
2019-04-11T10:10:05.321Z,33.80
2019-04-11T10:11:05.838Z,34.30
2019-04-11T10:12:05.004Z,33.80
2019-04-11T10:13:04.873Z,32.70
2019-04-11T10:14:05.215Z,32.70
2019-04-11T10:15:05.121Z,33.50
2019-04-11T10:16:04.486Z,32.20
2019-04-11T10:17:04.611Z,32.50
2019-04-11T10:18:05.172Z,32.80
2019-04-11T10:19:05.379Z,32.40
2019-04-11T10:20:04.693Z,30.20
2019-04-11T10:21:04.802Z,31.70
2019-04-11T10:22:04.874Z,31.30
2019-04-11T10:23:04.979Z,31.90
2019-04-11T10:24:03.451Z,32.30
2019-04-11T10:25:03.376Z,31.10
2019-04-11T10:26:03.521Z,31.60
2019-04-11T10:27:03.061Z,31.50
2019-04-11T10:28:02.935Z,29.70
2019-04-11T10:29:02.805Z,30.80
2019-04-11T10:30:02.674Z,31.10
2019-04-11T10:31:02.544Z,32.30
2019-04-11T10:32:03.267Z,32.70
2019-04-11T10:33:02.288Z,31.20
2019-04-11T10:34:03.231Z,29.90
2019-04-11T10:35:02.028Z,30.70
2019-04-11T10:36:02.938Z,30.00
2019-04-11T10:37:01.770Z,30.40
2019-04-11T10:38:02.309Z,31.00
2019-04-11T10:39:02.675Z,31.20
2019-04-11T10:40:01.914Z,31.30
2019-04-11T10:41:01.250Z,30.80
2019-04-11T10:42:02.169Z,30.60
2019-04-11T10:43:01.461Z,30.80
2019-04-11T10:44:01.413Z,30.50
2019-04-11T10:45:00.728Z,30.50
2019-04-11T10:46:00.783Z,32.00
2019-04-11T10:47:00.469Z,31.30
2019-04-11T10:48:01.191Z,31.60
2019-04-11T10:49:01.192Z,33.40
2019-04-11T10:50:00.895Z,34.10
2019-04-11T10:51:00.359Z,32.70
2019-04-11T10:52:00.365Z,32.20
2019-04-11T10:53:00.642Z,34.50
2019-04-11T10:53:59.713Z,33.00
2019-04-11T10:54:59.432Z,31.30
2019-04-11T10:56:00.050Z,32.30
2019-04-11T10:56:59.892Z,30.50
2019-04-11T10:57:59.042Z,31.40
2019-04-11T10:58:59.552Z,30.40
2019-04-11T10:59:58.789Z,30.80
2019-04-11T11:00:59.594Z,31.10
2019-04-11T11:01:58.532Z,32.00
2019-04-11T11:02:58.397Z,31.90
2019-04-11T11:03:59.019Z,30.40
2019-04-11T11:04:59.035Z,30.40
2019-04-11T11:05:58.008Z,30.30
2019-04-11T11:06:57.992Z,30.00
2019-04-11T11:07:57.750Z,30.10
2019-04-11T11:08:57.619Z,29.10
2019-04-11T11:09:58.670Z,29.40
2019-04-11T11:10:57.748Z,29.30
2019-04-11T11:11:57.230Z,30.00
2019-04-11T11:12:57.367Z,29.90
2019-04-11T11:13:56.968Z,29.30
2019-04-11T11:14:56.838Z,29.90
2019-04-11T11:15:57.962Z,29.70
2019-04-11T11:16:56.835Z,28.50
2019-04-11T11:18:27.188Z,29.30
2019-04-11T11:19:24.492Z,29.50
2019-04-11T11:20:08.896Z,29.20
2019-04-11T11:20:59.256Z,29.10
2019-04-11T11:21:59.881Z,28.80
2019-04-11T11:22:56.047Z,27.70
2019-04-11T11:23:56.943Z,27.10
2019-04-11T11:24:55.550Z,28.60
2019-04-11T11:25:56.394Z,28.60
2019-04-11T11:26:57.977Z,27.90
2019-04-11T11:27:55.775Z,28.60
2019-04-11T11:28:55.027Z,27.70
2019-04-11T11:29:56.156Z,28.30
2019-04-11T11:30:54.771Z,28.60
2019-04-11T11:31:54.725Z,27.70
2019-04-11T11:32:54.511Z,27.10
2019-04-11T11:33:54.438Z,27.80
2019-04-11T11:34:55.041Z,28.00
2019-04-11T11:35:54.125Z,28.60
2019-04-11T11:36:55.044Z,29.30
2019-04-11T11:37:53.865Z,29.40
2019-04-11T11:38:54.380Z,29.10
2019-04-11T11:39:58.917Z,29.20
2019-04-11T11:40:54.240Z,29.50
2019-04-11T11:41:54.525Z,29.10
2019-04-11T11:42:53.225Z,30.00
2019-04-11T11:43:53.087Z,29.90
2019-04-11T11:44:53.187Z,28.80
2019-04-11T11:45:55.532Z,29.60
2019-04-11T11:46:52.700Z,30.10
2019-04-11T11:47:53.216Z,29.40
2019-04-11T11:48:54.172Z,29.80
2019-04-11T11:49:58.564Z,30.10
2019-04-11T11:50:52.864Z,29.30
2019-04-11T11:51:52.053Z,30.30
2019-04-11T11:52:53.157Z,29.40
2019-04-11T11:53:51.806Z,29.70
2019-04-11T11:54:51.676Z,30.20
2019-04-11T11:55:51.706Z,30.20
2019-04-11T11:56:51.409Z,28.80
2019-04-11T11:57:51.274Z,29.40
2019-04-11T11:58:55.386Z,30.30
2019-04-11T11:59:51.014Z,28.50
2019-04-11T12:00:53.894Z,28.50
2019-04-11T12:01:52.429Z,28.30
2019-04-11T12:02:51.981Z,29.20
2019-04-11T12:03:50.819Z,28.40
2019-04-11T12:04:50.368Z,29.50
2019-04-11T12:05:52.460Z,28.50
2019-04-11T12:06:53.231Z,29.00
2019-04-11T12:07:49.979Z,29.00
2019-04-11T12:08:51.300Z,29.40
2019-04-11T12:09:50.888Z,29.10
2019-04-11T12:10:49.596Z,28.80
2019-04-11T12:11:52.443Z,27.70
2019-04-11T12:12:49.333Z,27.00
2019-04-11T12:13:49.415Z,27.90
2019-04-11T12:14:49.655Z,28.40
2019-04-11T12:15:49.068Z,28.50
2019-04-11T12:16:52.008Z,28.70
2019-04-11T12:17:49.089Z,28.70
2019-04-11T12:18:51.692Z,28.50
2019-04-11T12:19:53.348Z,28.90
2019-04-11T12:20:49.265Z,29.00
2019-04-11T12:21:48.989Z,29.30
2019-04-11T12:22:49.521Z,28.50
2019-04-11T12:23:58.028Z,28.80
2019-04-11T12:24:48.293Z,30.20
2019-04-11T12:25:47.652Z,29.80
2019-04-11T12:26:48.663Z,29.80
2019-04-11T12:27:47.392Z,30.60
2019-04-11T12:28:47.899Z,30.70
2019-04-11T12:29:50.144Z,30.30
2019-04-11T12:30:48.084Z,30.60
2019-04-11T12:31:48.017Z,30.80
2019-04-11T12:32:46.751Z,31.60
2019-04-11T12:33:47.831Z,31.80
2019-04-11T12:34:47.188Z,31.30
2019-04-11T12:35:46.529Z,31.40
2019-04-11T12:36:48.043Z,31.40
2019-04-11T12:37:50.440Z,32.30
2019-04-11T12:38:45.970Z,32.60
2019-04-11T12:39:45.837Z,32.00
2019-04-11T12:40:45.708Z,31.60
2019-04-11T12:41:45.580Z,31.70
2019-04-11T12:42:45.451Z,31.30
2019-04-11T12:43:45.321Z,30.60
2019-04-11T12:44:45.190Z,30.80
2019-04-11T12:45:45.085Z,30.30
2019-04-11T12:46:44.935Z,30.60
2019-04-11T12:47:44.804Z,30.40
2019-04-11T12:48:44.673Z,30.10
2019-04-11T12:49:52.817Z,31.10
2019-04-11T12:50:44.415Z,29.90
2019-04-11T12:51:44.290Z,30.10
2019-04-11T12:52:44.155Z,30.10
2019-04-11T12:53:44.028Z,30.50
2019-04-11T12:54:43.899Z,30.40
2019-04-11T12:55:43.773Z,30.20